AFL527 UUEE-ULLI
Flight info
| Callsign | AFL527 |
|---|---|
| Flight time | N/A |
| Altitude | 40000 |
| Route | TOKNU L4 NUDKO T561 ODATI T875 GENPA |
| Aircraft | A359/H-SDE2E3GHIJ3J4J5LM1ORWXY/LB1D1 |
Departure
| Time | 2026-05-04 14:40 |
|---|---|
| Airport | Sheremetyevo International Airport (UUEE) |
Arrival
| Time | N/A |
|---|---|
| Airport | Pulkovo Airport (ULLI) |
| Time | Latitude | Longitude | Altitude | Speed | Heading |
|---|---|---|---|---|---|
| 2026-05-04 14:05 | 55.97937 | 37.41870 | 623 ft | 0 kts | 255° |
| 2026-05-04 14:30 | 55.97940 | 37.41885 | 623 ft | 2 kts | 255° |
| 2026-05-04 14:30 | 55.97946 | 37.41927 | 622 ft | 2 kts | 246° |
| 2026-05-04 14:31 | 55.97954 | 37.41949 | 622 ft | 2 kts | 226° |
| 2026-05-04 14:31 | 55.97979 | 37.41979 | 621 ft | 2 kts | 195° |
| 2026-05-04 14:32 | 55.98007 | 37.41981 | 621 ft | 0 kts | 165° |
| 2026-05-04 14:32 | 55.98011 | 37.41979 | 621 ft | 0 kts | 163° |
| 2026-05-04 14:34 | 55.98009 | 37.41980 | 621 ft | 0 kts | 164° |
| 2026-05-04 14:34 | 55.97999 | 37.41985 | 621 ft | 2 kts | 165° |
| 2026-05-04 14:34 | 55.97978 | 37.41995 | 621 ft | 3 kts | 164° |
| 2026-05-04 14:34 | 55.97953 | 37.42007 | 621 ft | 4 kts | 166° |
| 2026-05-04 14:35 | 55.97914 | 37.42023 | 620 ft | 7 kts | 166° |
| 2026-05-04 14:35 | 55.97857 | 37.42049 | 620 ft | 9 kts | 166° |
| 2026-05-04 14:35 | 55.97783 | 37.42081 | 619 ft | 6 kts | 166° |
| 2026-05-04 14:35 | 55.97739 | 37.42101 | 619 ft | 7 kts | 166° |
| 2026-05-04 14:36 | 55.97691 | 37.42152 | 618 ft | 9 kts | 127° |
| 2026-05-04 14:36 | 55.97689 | 37.42269 | 617 ft | 10 kts | 75° |
| 2026-05-04 14:36 | 55.97710 | 37.42412 | 616 ft | 14 kts | 75° |
| 2026-05-04 14:36 | 55.97738 | 37.42601 | 616 ft | 16 kts | 75° |
| 2026-05-04 14:37 | 55.97772 | 37.42829 | 613 ft | 20 kts | 75° |
| 2026-05-04 14:37 | 55.97810 | 37.43083 | 614 ft | 22 kts | 75° |
| 2026-05-04 14:37 | 55.97849 | 37.43349 | 618 ft | 21 kts | 75° |
| 2026-05-04 14:37 | 55.97889 | 37.43620 | 619 ft | 23 kts | 75° |
| 2026-05-04 14:38 | 55.97925 | 37.43862 | 622 ft | 13 kts | 74° |
| 2026-05-04 14:38 | 55.97939 | 37.43981 | 623 ft | 6 kts | 92° |
| 2026-05-04 14:38 | 55.97917 | 37.44026 | 622 ft | 2 kts | 154° |
| 2026-05-04 14:38 | 55.97892 | 37.44041 | 622 ft | 5 kts | 162° |
| 2026-05-04 14:39 | 55.97848 | 37.44063 | 621 ft | 7 kts | 165° |
| 2026-05-04 14:39 | 55.97800 | 37.44056 | 620 ft | 7 kts | 204° |
| 2026-05-04 14:39 | 55.97774 | 37.43992 | 620 ft | 0 kts | 254° |
| 2026-05-04 14:40 | 55.97697 | 37.43479 | 615 ft | 91 kts | 255° |
| 2026-05-04 14:40 | 55.97481 | 37.41907 | 689 ft | 162 kts | 257° |
| 2026-05-04 14:40 | 55.97208 | 37.40078 | 1818 ft | 151 kts | 254° |
| 2026-05-04 14:40 | 55.97006 | 37.38392 | 2910 ft | 145 kts | 262° |
| 2026-05-04 14:41 | 55.96939 | 37.36722 | 3753 ft | 137 kts | 263° |
| 2026-05-04 14:41 | 55.96654 | 37.35029 | 4228 ft | 151 kts | 250° |
| 2026-05-04 14:41 | 55.95861 | 37.31142 | 5283 ft | 184 kts | 252° |
| 2026-05-04 14:42 | 55.95044 | 37.26459 | 6515 ft | 215 kts | 254° |
| 2026-05-04 14:42 | 55.94615 | 37.23833 | 7130 ft | 232 kts | 255° |
| 2026-05-04 14:42 | 55.94158 | 37.20977 | 7763 ft | 248 kts | 255° |
| 2026-05-04 14:43 | 55.93680 | 37.17966 | 8393 ft | 264 kts | 255° |
| 2026-05-04 14:43 | 55.93175 | 37.14777 | 9187 ft | 273 kts | 255° |
| 2026-05-04 14:43 | 55.92659 | 37.11523 | 9692 ft | 275 kts | 256° |
| 2026-05-04 14:43 | 55.92141 | 37.08254 | 9947 ft | 276 kts | 256° |
| 2026-05-04 14:44 | 55.91653 | 37.04917 | 9998 ft | 275 kts | 263° |
| 2026-05-04 14:44 | 55.91792 | 37.01574 | 10005 ft | 273 kts | 288° |
| 2026-05-04 14:44 | 55.92717 | 36.98659 | 10015 ft | 274 kts | 311° |
| 2026-05-04 14:44 | 55.94193 | 36.96544 | 10018 ft | 277 kts | 323° |
| 2026-05-04 14:45 | 55.95781 | 36.94609 | 10000 ft | 277 kts | 323° |
| 2026-05-04 14:45 | 55.97372 | 36.92666 | 10001 ft | 276 kts | 323° |
| 2026-05-04 14:45 | 55.98983 | 36.90862 | 10003 ft | 277 kts | 329° |
| 2026-05-04 14:45 | 56.00765 | 36.89385 | 10056 ft | 284 kts | 336° |
| 2026-05-04 14:46 | 56.02657 | 36.88200 | 10510 ft | 298 kts | 338° |
| 2026-05-04 14:46 | 56.04644 | 36.87022 | 11208 ft | 309 kts | 339° |
| 2026-05-04 14:46 | 56.06671 | 36.85810 | 12072 ft | 313 kts | 336° |
| 2026-05-04 14:46 | 56.08619 | 36.84102 | 12957 ft | 314 kts | 326° |
| 2026-05-04 14:47 | 56.10370 | 36.81747 | 13857 ft | 316 kts | 317° |
| 2026-05-04 14:47 | 56.11975 | 36.79137 | 14696 ft | 319 kts | 315° |
| 2026-05-04 14:47 | 56.13600 | 36.76422 | 15361 ft | 323 kts | 315° |
| 2026-05-04 14:47 | 56.15249 | 36.73649 | 15745 ft | 325 kts | 315° |
| 2026-05-04 14:48 | 56.16895 | 36.70882 | 15873 ft | 326 kts | 315° |
| 2026-05-04 14:48 | 56.18536 | 36.68126 | 15869 ft | 325 kts | 315° |
| 2026-05-04 14:48 | 56.20169 | 36.65382 | 15869 ft | 324 kts | 315° |
| 2026-05-04 14:48 | 56.21822 | 36.62604 | 15868 ft | 324 kts | 315° |
| 2026-05-04 14:49 | 56.23482 | 36.59810 | 15940 ft | 331 kts | 315° |
| 2026-05-04 14:49 | 56.25150 | 36.56994 | 16527 ft | 337 kts | 315° |
| 2026-05-04 14:49 | 56.26852 | 36.54120 | 17431 ft | 336 kts | 315° |
| 2026-05-04 14:49 | 56.28536 | 36.51270 | 18229 ft | 339 kts | 315° |
| 2026-05-04 14:50 | 56.30272 | 36.48326 | 19001 ft | 343 kts | 315° |
| 2026-05-04 14:50 | 56.32148 | 36.45682 | 19681 ft | 351 kts | 327° |
| 2026-05-04 14:50 | 56.34218 | 36.43464 | 20430 ft | 352 kts | 320° |
| 2026-05-04 14:50 | 56.35852 | 36.40255 | 21129 ft | 351 kts | 300° |
| 2026-05-04 14:51 | 56.37017 | 36.36403 | 21892 ft | 352 kts | 297° |
| 2026-05-04 14:51 | 56.38185 | 36.32523 | 22517 ft | 358 kts | 298° |
| 2026-05-04 14:51 | 56.39453 | 36.28661 | 23188 ft | 362 kts | 300° |
| 2026-05-04 14:51 | 56.40808 | 36.24822 | 23872 ft | 366 kts | 301° |
| 2026-05-04 14:52 | 56.42235 | 36.20963 | 24522 ft | 370 kts | 302° |
| 2026-05-04 14:52 | 56.43682 | 36.17159 | 25146 ft | 374 kts | 302° |
| 2026-05-04 14:52 | 56.45168 | 36.13319 | 25736 ft | 378 kts | 303° |
| 2026-05-04 14:52 | 56.46681 | 36.09445 | 26307 ft | 381 kts | 303° |
| 2026-05-04 14:53 | 56.48210 | 36.05549 | 26862 ft | 384 kts | 303° |
| 2026-05-04 14:53 | 56.49774 | 36.01577 | 27410 ft | 387 kts | 303° |
| 2026-05-04 14:53 | 56.51330 | 35.97626 | 27918 ft | 390 kts | 303° |
| 2026-05-04 14:53 | 56.52910 | 35.93617 | 28429 ft | 393 kts | 303° |
| 2026-05-04 14:54 | 56.54501 | 35.89574 | 28916 ft | 396 kts | 303° |
| 2026-05-04 14:54 | 56.56074 | 35.85572 | 29373 ft | 399 kts | 303° |
| 2026-05-04 14:54 | 56.57689 | 35.81460 | 29825 ft | 401 kts | 303° |
| 2026-05-04 14:54 | 56.59313 | 35.77316 | 30285 ft | 404 kts | 303° |
| 2026-05-04 14:55 | 56.60934 | 35.73172 | 30688 ft | 406 kts | 303° |
| 2026-05-04 14:55 | 56.62557 | 35.69018 | 31076 ft | 409 kts | 303° |
| 2026-05-04 14:55 | 56.64213 | 35.64768 | 31472 ft | 411 kts | 303° |
| 2026-05-04 14:55 | 56.65853 | 35.60555 | 31854 ft | 413 kts | 303° |
| 2026-05-04 14:56 | 56.67511 | 35.56286 | 32231 ft | 415 kts | 303° |
| 2026-05-04 14:56 | 56.69178 | 35.51992 | 32587 ft | 418 kts | 303° |
| 2026-05-04 14:56 | 56.70845 | 35.47689 | 32939 ft | 419 kts | 304° |
| 2026-05-04 14:56 | 56.72516 | 35.43368 | 33291 ft | 421 kts | 304° |
| 2026-05-04 14:57 | 56.74192 | 35.39031 | 33624 ft | 423 kts | 304° |
| 2026-05-04 14:57 | 56.75882 | 35.34644 | 33938 ft | 425 kts | 303° |
| 2026-05-04 14:57 | 56.77565 | 35.30264 | 34263 ft | 427 kts | 303° |
| 2026-05-04 14:57 | 56.79259 | 35.25840 | 34596 ft | 428 kts | 303° |
| 2026-05-04 14:58 | 56.80966 | 35.21386 | 34879 ft | 429 kts | 303° |
| 2026-05-04 14:58 | 56.82671 | 35.16930 | 35127 ft | 431 kts | 303° |
| 2026-05-04 14:58 | 56.84390 | 35.12426 | 35368 ft | 433 kts | 303° |
| 2026-05-04 14:58 | 56.85542 | 35.09414 | 35524 ft | 434 kts | 304° |
| 2026-05-04 14:59 | 56.87956 | 35.03589 | 35768 ft | 438 kts | 307° |
| 2026-05-04 14:59 | 56.89945 | 34.99368 | 35788 ft | 439 kts | 310° |
| 2026-05-04 15:00 | 56.96679 | 34.88065 | 35806 ft | 442 kts | 320° |
| 2026-05-04 15:00 | 57.01738 | 34.81643 | 35805 ft | 444 kts | 324° |
| 2026-05-04 15:01 | 57.09483 | 34.72383 | 35802 ft | 443 kts | 324° |
| 2026-05-04 15:01 | 57.14608 | 34.66249 | 35797 ft | 444 kts | 324° |
| 2026-05-04 15:02 | 57.19789 | 34.60019 | 35791 ft | 444 kts | 324° |
| 2026-05-04 15:02 | 57.24941 | 34.53781 | 35791 ft | 445 kts | 323° |
| 2026-05-04 15:03 | 57.30070 | 34.47545 | 35793 ft | 443 kts | 323° |
| 2026-05-04 15:03 | 57.35179 | 34.41306 | 35778 ft | 438 kts | 323° |
| 2026-05-04 15:04 | 57.40181 | 34.35181 | 35784 ft | 427 kts | 323° |
| 2026-05-04 15:04 | 57.45101 | 34.29107 | 35782 ft | 426 kts | 322° |
| 2026-05-04 15:05 | 57.50010 | 34.23029 | 35784 ft | 425 kts | 322° |
| 2026-05-04 15:05 | 57.54900 | 34.16970 | 35774 ft | 426 kts | 322° |
| 2026-05-04 15:06 | 57.59839 | 34.10835 | 35775 ft | 426 kts | 322° |
| 2026-05-04 15:07 | 57.65341 | 34.03986 | 35769 ft | 413 kts | 322° |
| 2026-05-04 15:07 | 57.69985 | 33.98185 | 35762 ft | 404 kts | 322° |
| 2026-05-04 15:08 | 57.74642 | 33.92343 | 35760 ft | 404 kts | 322° |
| 2026-05-04 15:08 | 57.79293 | 33.86499 | 35760 ft | 405 kts | 321° |
| 2026-05-04 15:09 | 57.83955 | 33.80612 | 35754 ft | 405 kts | 321° |
| 2026-05-04 15:09 | 57.88497 | 33.74509 | 35548 ft | 401 kts | 317° |
| 2026-05-04 15:10 | 57.92781 | 33.68047 | 34966 ft | 389 kts | 316° |
| 2026-05-04 15:10 | 57.94858 | 33.64881 | 34728 ft | 385 kts | 316° |
| 2026-05-04 15:10 | 57.98989 | 33.58575 | 34316 ft | 383 kts | 316° |
| 2026-05-04 15:11 | 58.01038 | 33.55448 | 33991 ft | 379 kts | 316° |
| 2026-05-04 15:11 | 58.03064 | 33.52352 | 33493 ft | 378 kts | 316° |
| 2026-05-04 15:11 | 58.05103 | 33.49233 | 33004 ft | 376 kts | 316° |
| 2026-05-04 15:11 | 58.07097 | 33.46177 | 32554 ft | 374 kts | 316° |
| 2026-05-04 15:12 | 58.09126 | 33.43066 | 32097 ft | 371 kts | 316° |
| 2026-05-04 15:12 | 58.11104 | 33.40033 | 31655 ft | 369 kts | 316° |
| 2026-05-04 15:12 | 58.13097 | 33.36991 | 31196 ft | 367 kts | 316° |
| 2026-05-04 15:12 | 58.15054 | 33.33988 | 30749 ft | 365 kts | 315° |
| 2026-05-04 15:13 | 58.17014 | 33.30955 | 30331 ft | 362 kts | 315° |
| 2026-05-04 15:13 | 58.18955 | 33.27947 | 29828 ft | 362 kts | 315° |
| 2026-05-04 15:13 | 58.20870 | 33.24977 | 29483 ft | 358 kts | 315° |
| 2026-05-04 15:13 | 58.22784 | 33.22014 | 29099 ft | 356 kts | 315° |
| 2026-05-04 15:14 | 58.24696 | 33.19047 | 28717 ft | 353 kts | 315° |
| 2026-05-04 15:14 | 58.26558 | 33.16152 | 28375 ft | 349 kts | 315° |
| 2026-05-04 15:14 | 58.28442 | 33.13218 | 28036 ft | 349 kts | 315° |
| 2026-05-04 15:14 | 58.30307 | 33.10316 | 27772 ft | 346 kts | 315° |
| 2026-05-04 15:15 | 58.32135 | 33.07462 | 27487 ft | 345 kts | 315° |
| 2026-05-04 15:15 | 58.33974 | 33.04590 | 27228 ft | 343 kts | 315° |
| 2026-05-04 15:15 | 58.35819 | 33.01706 | 26968 ft | 341 kts | 315° |
| 2026-05-04 15:16 | 58.39455 | 32.96006 | 26364 ft | 337 kts | 315° |
| 2026-05-04 15:16 | 58.41247 | 32.93186 | 25871 ft | 337 kts | 315° |
| 2026-05-04 15:16 | 58.44822 | 32.87559 | 25181 ft | 331 kts | 315° |
| 2026-05-04 15:17 | 58.46571 | 32.84799 | 24810 ft | 329 kts | 315° |
| 2026-05-04 15:17 | 58.50056 | 32.79288 | 24122 ft | 326 kts | 315° |
| 2026-05-04 15:17 | 58.51811 | 32.76507 | 23787 ft | 325 kts | 315° |
| 2026-05-04 15:18 | 58.53525 | 32.73788 | 23457 ft | 323 kts | 315° |
| 2026-05-04 15:18 | 58.55244 | 32.71063 | 23140 ft | 321 kts | 315° |
| 2026-05-04 15:18 | 58.56955 | 32.68342 | 22818 ft | 320 kts | 315° |
| 2026-05-04 15:19 | 58.60340 | 32.62951 | 22197 ft | 316 kts | 314° |
| 2026-05-04 15:19 | 58.62029 | 32.60255 | 21879 ft | 315 kts | 314° |
| 2026-05-04 15:19 | 58.65363 | 32.54925 | 21251 ft | 312 kts | 314° |
| 2026-05-04 15:20 | 58.67021 | 32.52271 | 20926 ft | 310 kts | 314° |
| 2026-05-04 15:20 | 58.68657 | 32.49648 | 20623 ft | 309 kts | 314° |
| 2026-05-04 15:20 | 58.70291 | 32.47024 | 20317 ft | 307 kts | 314° |
| 2026-05-04 15:20 | 58.71930 | 32.44385 | 20008 ft | 306 kts | 314° |
| 2026-05-04 15:21 | 58.73544 | 32.41785 | 19706 ft | 304 kts | 314° |
| 2026-05-04 15:21 | 58.75164 | 32.39176 | 19393 ft | 303 kts | 314° |
| 2026-05-04 15:21 | 58.78358 | 32.34010 | 18805 ft | 299 kts | 313° |
| 2026-05-04 15:22 | 58.79933 | 32.31443 | 18489 ft | 298 kts | 313° |
| 2026-05-04 15:22 | 58.81521 | 32.28857 | 18177 ft | 297 kts | 313° |
| 2026-05-04 15:22 | 58.84648 | 32.23769 | 17559 ft | 295 kts | 312° |
| 2026-05-04 15:23 | 58.86196 | 32.21247 | 17260 ft | 293 kts | 313° |
| 2026-05-04 15:23 | 58.87745 | 32.18721 | 16973 ft | 291 kts | 312° |
| 2026-05-04 15:23 | 58.89270 | 32.16236 | 16686 ft | 290 kts | 312° |
| 2026-05-04 15:23 | 58.90800 | 32.13738 | 16397 ft | 288 kts | 312° |
| 2026-05-04 15:24 | 58.93844 | 32.08756 | 15800 ft | 286 kts | 312° |
| 2026-05-04 15:24 | 58.96851 | 32.03833 | 15223 ft | 283 kts | 312° |
| 2026-05-04 15:25 | 58.98346 | 32.01379 | 14916 ft | 282 kts | 312° |
| 2026-05-04 15:25 | 58.99841 | 31.98922 | 14610 ft | 281 kts | 311° |
| 2026-05-04 15:25 | 59.01307 | 31.96511 | 14314 ft | 281 kts | 311° |
| 2026-05-04 15:26 | 59.04264 | 31.91639 | 13700 ft | 278 kts | 311° |
| 2026-05-04 15:26 | 59.05730 | 31.89214 | 13402 ft | 278 kts | 311° |
| 2026-05-04 15:27 | 59.09983 | 31.82172 | 12574 ft | 273 kts | 310° |
| 2026-05-04 15:27 | 59.12720 | 31.77194 | 12039 ft | 268 kts | 308° |
| 2026-05-04 15:28 | 59.15364 | 31.72214 | 11468 ft | 265 kts | 307° |
| 2026-05-04 15:28 | 59.16437 | 31.70181 | 11245 ft | 264 kts | 307° |
| 2026-05-04 15:28 | 59.19045 | 31.65232 | 10766 ft | 261 kts | 307° |
| 2026-05-04 15:29 | 59.20337 | 31.62775 | 10568 ft | 260 kts | 307° |
| 2026-05-04 15:30 | 59.25450 | 31.53027 | 9767 ft | 256 kts | 306° |
| 2026-05-04 15:30 | 59.29253 | 31.45738 | 9092 ft | 256 kts | 307° |
| 2026-05-04 15:31 | 59.31786 | 31.40871 | 8523 ft | 255 kts | 307° |
| 2026-05-04 15:31 | 59.33051 | 31.38436 | 8254 ft | 256 kts | 307° |
| 2026-05-04 15:32 | 59.36824 | 31.31147 | 7486 ft | 255 kts | 306° |
| 2026-05-04 15:32 | 59.39337 | 31.26273 | 6968 ft | 255 kts | 306° |
| 2026-05-04 15:33 | 59.41856 | 31.21386 | 6455 ft | 254 kts | 306° |
| 2026-05-04 15:34 | 59.45606 | 31.14097 | 5700 ft | 253 kts | 306° |
| 2026-05-04 15:34 | 59.46847 | 31.11678 | 5456 ft | 253 kts | 306° |
| 2026-05-04 15:34 | 59.49321 | 31.06849 | 4948 ft | 252 kts | 307° |
| 2026-05-04 15:35 | 59.51790 | 31.01955 | 4562 ft | 249 kts | 304° |
| 2026-05-04 15:35 | 59.52932 | 30.99390 | 4578 ft | 251 kts | 303° |
| 2026-05-04 15:35 | 59.54064 | 30.96809 | 4567 ft | 250 kts | 303° |
| 2026-05-04 15:36 | 59.56329 | 30.91619 | 4548 ft | 250 kts | 303° |
| 2026-05-04 15:36 | 59.57468 | 30.89011 | 4529 ft | 248 kts | 303° |
| 2026-05-04 15:36 | 59.58573 | 30.86476 | 4243 ft | 248 kts | 303° |
| 2026-05-04 15:37 | 59.59697 | 30.83889 | 3931 ft | 248 kts | 303° |
| 2026-05-04 15:37 | 59.60818 | 30.81308 | 3560 ft | 250 kts | 304° |
| 2026-05-04 15:37 | 59.61936 | 30.78733 | 3329 ft | 247 kts | 304° |
| 2026-05-04 15:37 | 59.63043 | 30.76186 | 3105 ft | 244 kts | 304° |
| 2026-05-04 15:38 | 59.64136 | 30.73667 | 2914 ft | 239 kts | 304° |
| 2026-05-04 15:38 | 59.65191 | 30.71239 | 2836 ft | 229 kts | 304° |
| 2026-05-04 15:38 | 59.66218 | 30.68910 | 2787 ft | 220 kts | 308° |
| 2026-05-04 15:38 | 59.67337 | 30.66937 | 2745 ft | 214 kts | 316° |
| 2026-05-04 15:39 | 59.68524 | 30.65247 | 2694 ft | 205 kts | 318° |
| 2026-05-04 15:39 | 59.69661 | 30.63686 | 2687 ft | 192 kts | 317° |
| 2026-05-04 15:39 | 59.71723 | 30.60843 | 2552 ft | 177 kts | 317° |
| 2026-05-04 15:40 | 59.72730 | 30.59429 | 2407 ft | 176 kts | 317° |
| 2026-05-04 15:40 | 59.73725 | 30.58034 | 2258 ft | 176 kts | 317° |
| 2026-05-04 15:40 | 59.74618 | 30.56471 | 2041 ft | 165 kts | 296° |
| 2026-05-04 15:41 | 59.75401 | 30.52709 | 2000 ft | 143 kts | 283° |
| 2026-05-04 15:41 | 59.75707 | 30.50857 | 1986 ft | 142 kts | 282° |
| 2026-05-04 15:41 | 59.75899 | 30.49618 | 1979 ft | 142 kts | 282° |
| 2026-05-04 15:42 | 59.76517 | 30.45435 | 1831 ft | 142 kts | 282° |
| 2026-05-04 15:42 | 59.76788 | 30.43584 | 1650 ft | 142 kts | 281° |
| 2026-05-04 15:42 | 59.77064 | 30.41692 | 1467 ft | 143 kts | 282° |
| 2026-05-04 15:42 | 59.77342 | 30.39788 | 1288 ft | 144 kts | 282° |
| 2026-05-04 15:43 | 59.77434 | 30.39162 | 1224 ft | 144 kts | 282° |
| 2026-05-04 15:43 | 59.78482 | 30.32020 | 515 ft | 149 kts | 282° |